createdAt,value
2023-03-14T00:00:23.837Z,97.38
2023-03-14T00:00:54.751Z,97.28
2023-03-14T00:01:25.691Z,97.38
2023-03-14T00:01:56.889Z,97.58
2023-03-14T00:02:27.346Z,97.69
2023-03-14T00:02:58.342Z,97.69
2023-03-14T00:03:29.289Z,97.48
2023-03-14T00:04:00.190Z,97.38
2023-03-14T00:04:31.148Z,97.38
2023-03-14T00:05:02.066Z,97.17
2023-03-14T00:05:33.011Z,97.38
2023-03-14T00:06:03.925Z,97.38
2023-03-14T00:06:34.832Z,97.28
2023-03-14T00:07:05.761Z,97.17
2023-03-14T00:07:36.690Z,96.87
2023-03-14T00:08:07.604Z,96.77
2023-03-14T00:08:38.577Z,96.66
2023-03-14T00:09:09.215Z,96.56
2023-03-14T00:09:40.136Z,96.56
2023-03-14T00:10:11.051Z,96.56
2023-03-14T00:10:42.009Z,96.66
2023-03-14T00:11:12.939Z,96.66
2023-03-14T00:11:43.859Z,96.66
2023-03-14T00:12:14.765Z,96.56
2023-03-14T00:12:45.712Z,96.45
2023-03-14T00:13:16.648Z,96.35
2023-03-14T00:13:47.554Z,96.35
2023-03-14T00:14:18.478Z,96.45
2023-03-14T00:14:49.408Z,96.56
2023-03-14T00:15:20.361Z,96.77
2023-03-14T00:15:51.319Z,96.77
2023-03-14T00:16:22.367Z,96.77
2023-03-14T00:16:52.797Z,96.77
2023-03-14T00:17:23.679Z,96.87
2023-03-14T00:17:54.657Z,96.77
2023-03-14T00:18:25.601Z,96.66
2023-03-14T00:18:56.580Z,96.66
2023-03-14T00:19:27.518Z,96.66
2023-03-14T00:19:58.450Z,96.97
2023-03-14T00:20:29.395Z,96.97
2023-03-14T00:21:00.328Z,96.87
2023-03-14T00:21:31.279Z,96.66
2023-03-14T00:22:02.164Z,96.66
2023-03-14T00:22:33.084Z,96.56
2023-03-14T00:23:04.018Z,96.45
2023-03-14T00:23:34.923Z,96.45
2023-03-14T00:24:05.829Z,96.25
2023-03-14T00:24:36.769Z,96.35
2023-03-14T00:25:07.661Z,96.45
2023-03-14T00:25:38.598Z,96.45
2023-03-14T00:26:09.542Z,96.15
2023-03-14T00:26:40.441Z,95.94
2023-03-14T00:27:11.435Z,95.94
2023-03-14T00:27:42.340Z,96.15
2023-03-14T00:28:13.227Z,96.25
2023-03-14T00:28:44.188Z,96.35
2023-03-14T00:29:15.094Z,96.56
2023-03-14T00:29:46.025Z,96.56
2023-03-14T00:30:16.944Z,96.45
2023-03-14T00:30:47.980Z,96.35
2023-03-14T00:31:18.473Z,96.45
2023-03-14T00:31:48.916Z,96.45
2023-03-14T00:32:19.878Z,96.45
2023-03-14T00:32:50.398Z,96.56
2023-03-14T00:33:20.830Z,96.66
2023-03-14T00:33:51.766Z,96.56
2023-03-14T00:34:22.693Z,96.56
2023-03-14T00:34:53.594Z,96.25
2023-03-14T00:35:24.516Z,96.15
2023-03-14T00:35:55.500Z,95.64
2023-03-14T00:36:26.397Z,95.74
2023-03-14T00:36:57.309Z,95.53
2023-03-14T00:37:28.230Z,95.53
2023-03-14T00:37:59.136Z,95.64
2023-03-14T00:38:30.028Z,95.64
2023-03-14T00:39:00.965Z,95.64
2023-03-14T00:39:31.894Z,95.84
2023-03-14T00:40:02.819Z,95.74
2023-03-14T00:40:33.742Z,95.84
2023-03-14T00:41:04.687Z,96.04
2023-03-14T00:41:35.575Z,95.94
2023-03-14T00:42:06.494Z,95.94
2023-03-14T00:42:37.413Z,95.84
2023-03-14T00:43:08.339Z,95.47
2023-03-14T00:43:39.289Z,95.64
2023-03-14T00:44:10.185Z,95.64
2023-03-14T00:44:41.098Z,95.84
2023-03-14T00:45:12.019Z,95.89
2023-03-14T00:45:42.952Z,95.98
2023-03-14T00:46:14.001Z,95.98
2023-03-14T00:46:44.511Z,95.98
2023-03-14T00:47:14.965Z,95.89
2023-03-14T00:47:45.857Z,96.19
2023-03-14T00:48:16.779Z,96.30
2023-03-14T00:48:47.707Z,96.50
2023-03-14T00:49:18.626Z,96.60
2023-03-14T00:49:49.546Z,96.60
2023-03-14T00:50:20.489Z,96.40
2023-03-14T00:50:51.416Z,96.30
2023-03-14T00:51:22.393Z,96.60
2023-03-14T00:51:53.320Z,96.50
2023-03-14T00:52:24.227Z,96.50
2023-03-14T00:52:55.142Z,96.50
2023-03-14T00:53:26.023Z,96.40
2023-03-14T00:53:56.943Z,96.70
2023-03-14T00:54:27.858Z,96.81
2023-03-14T00:54:58.837Z,96.91
2023-03-14T00:55:29.756Z,96.91
2023-03-14T00:56:00.688Z,97.02
2023-03-14T00:56:31.608Z,97.12
2023-03-14T00:57:02.554Z,97.02
2023-03-14T00:57:33.484Z,96.91
2023-03-14T00:58:04.387Z,97.02
2023-03-14T00:58:35.328Z,97.22
2023-03-14T00:59:06.234Z,97.02
2023-03-14T00:59:37.125Z,97.02
2023-03-14T01:00:08.052Z,97.12
2023-03-14T01:00:38.968Z,96.91
2023-03-14T01:01:09.926Z,96.70
2023-03-14T01:01:40.974Z,96.91
2023-03-14T01:02:11.443Z,96.91
2023-03-14T01:02:42.416Z,97.02
2023-03-14T01:03:13.513Z,97.12
2023-03-14T01:03:43.968Z,97.22
2023-03-14T01:04:14.916Z,97.32
2023-03-14T01:04:45.824Z,97.42
2023-03-14T01:05:16.734Z,97.53
2023-03-14T01:05:47.693Z,97.42
2023-03-14T01:06:18.634Z,97.42
2023-03-14T01:06:49.576Z,97.22
2023-03-14T01:07:20.512Z,97.02
2023-03-14T01:07:51.432Z,96.91
2023-03-14T01:08:22.367Z,96.60
2023-03-14T01:08:53.298Z,96.70
2023-03-14T01:09:24.212Z,97.02
2023-03-14T01:09:55.108Z,97.12
2023-03-14T01:10:26.031Z,97.22
2023-03-14T01:10:56.963Z,97.37
2023-03-14T01:11:27.872Z,97.27
2023-03-14T01:11:58.800Z,97.16
2023-03-14T01:12:29.736Z,97.06
2023-03-14T01:13:00.647Z,97.06
2023-03-14T01:13:31.553Z,97.06
2023-03-14T01:14:02.493Z,97.16
2023-03-14T01:14:33.415Z,97.27
2023-03-14T01:15:03.948Z,97.47
2023-03-14T01:15:34.870Z,97.47
2023-03-14T01:16:05.795Z,97.47
2023-03-14T01:16:36.839Z,97.37
2023-03-14T01:17:07.295Z,97.37
2023-03-14T01:17:38.192Z,97.47
2023-03-14T01:18:09.123Z,97.47
2023-03-14T01:18:40.046Z,97.47
2023-03-14T01:19:10.951Z,97.47
2023-03-14T01:19:41.937Z,97.67
2023-03-14T01:20:12.872Z,97.67
2023-03-14T01:20:43.796Z,97.57
2023-03-14T01:21:14.726Z,97.57
2023-03-14T01:21:45.910Z,97.57
2023-03-14T01:22:16.337Z,97.47
2023-03-14T01:22:47.273Z,97.47
2023-03-14T01:23:18.219Z,97.47
2023-03-14T01:23:49.129Z,97.67
2023-03-14T01:24:20.069Z,97.67
2023-03-14T01:24:50.984Z,97.67
2023-03-14T01:25:21.919Z,97.67
2023-03-14T01:25:52.919Z,97.67
2023-03-14T01:26:23.902Z,97.78
2023-03-14T01:26:54.944Z,97.88
2023-03-14T01:27:25.370Z,98.08
2023-03-14T01:27:56.297Z,97.99
2023-03-14T01:28:27.190Z,97.78
2023-03-14T01:28:58.095Z,97.88
2023-03-14T01:29:29.049Z,97.88
2023-03-14T01:29:59.957Z,97.88
2023-03-14T01:30:30.877Z,97.99
2023-03-14T01:31:01.812Z,98.08
2023-03-14T01:31:32.811Z,98.08
2023-03-14T01:32:03.274Z,98.29
2023-03-14T01:32:34.256Z,98.29
2023-03-14T01:33:05.190Z,98.29
2023-03-14T01:33:36.110Z,98.50
2023-03-14T01:34:07.030Z,98.60
2023-03-14T01:34:37.948Z,98.65
2023-03-14T01:35:08.889Z,98.54
2023-03-14T01:35:39.864Z,98.65
2023-03-14T01:36:10.839Z,98.85
2023-03-14T01:36:41.769Z,98.96
2023-03-14T01:37:12.730Z,99.05
2023-03-14T01:37:43.658Z,99.16
2023-03-14T01:38:14.558Z,98.96
2023-03-14T01:38:45.459Z,98.96
2023-03-14T01:39:16.392Z,98.96
2023-03-14T01:39:47.300Z,98.85
2023-03-14T01:40:18.231Z,98.96
2023-03-14T01:40:49.172Z,99.05
2023-03-14T01:41:20.098Z,99.26
2023-03-14T01:41:51.055Z,99.37
2023-03-14T01:42:22.003Z,99.47
2023-03-14T01:42:52.919Z,99.67
2023-03-14T01:43:23.835Z,99.93
2023-03-14T01:43:54.769Z,99.99
2023-03-14T01:44:25.679Z,99.99
2023-03-14T01:44:56.622Z,99.99
2023-03-14T01:45:27.562Z,99.99
2023-03-14T01:45:58.515Z,99.99
2023-03-14T01:46:29.446Z,99.99
2023-03-14T01:47:00.356Z,99.99
2023-03-14T01:47:31.260Z,99.99
2023-03-14T01:48:02.245Z,99.99
2023-03-14T01:48:33.162Z,99.99
2023-03-14T01:49:04.105Z,99.99
2023-03-14T01:49:34.998Z,99.99
2023-03-14T01:50:05.906Z,99.99
2023-03-14T01:50:36.853Z,99.99
2023-03-14T01:51:07.767Z,99.99
2023-03-14T01:51:38.693Z,99.99
2023-03-14T01:52:09.593Z,99.99
2023-03-14T01:52:40.519Z,99.99
2023-03-14T01:53:11.475Z,99.99
2023-03-14T01:53:42.381Z,99.99
2023-03-14T01:54:13.318Z,99.99
2023-03-14T01:54:44.369Z,99.99
2023-03-14T01:55:14.817Z,99.99
2023-03-14T01:55:45.717Z,99.99
2023-03-14T01:56:16.641Z,99.99
2023-03-14T01:56:47.552Z,99.99
2023-03-14T01:57:18.479Z,99.99
2023-03-14T01:57:49.398Z,99.99
2023-03-14T01:58:20.433Z,99.99
2023-03-14T01:58:50.867Z,99.99
2023-03-14T01:59:21.773Z,99.99
2023-03-14T01:59:52.692Z,99.99
2023-03-14T02:00:23.925Z,99.99
2023-03-14T02:00:54.442Z,99.99
2023-03-14T02:01:25.520Z,99.99
2023-03-14T02:01:55.942Z,99.99
2023-03-14T02:02:26.865Z,99.99
2023-03-14T02:02:57.809Z,99.99
2023-03-14T02:03:28.790Z,99.99
2023-03-14T02:03:59.691Z,99.99
2023-03-14T02:04:30.585Z,99.99
2023-03-14T02:05:01.522Z,99.99
2023-03-14T02:05:32.484Z,99.99
2023-03-14T02:06:03.411Z,99.99
2023-03-14T02:06:34.340Z,99.99
2023-03-14T02:07:05.269Z,99.99
2023-03-14T02:07:36.177Z,99.99
2023-03-14T02:08:07.120Z,99.99
2023-03-14T02:08:38.036Z,99.99
2023-03-14T02:09:08.928Z,99.99
2023-03-14T02:09:39.852Z,99.99
2023-03-14T02:10:10.775Z,99.99
2023-03-14T02:10:41.732Z,99.99
2023-03-14T02:11:13.672Z,99.99
2023-03-14T02:11:43.558Z,99.99
2023-03-14T02:12:14.489Z,99.99
2023-03-14T02:12:45.397Z,99.99
2023-03-14T02:13:16.316Z,99.99
2023-03-14T02:13:47.223Z,99.99
2023-03-14T02:14:18.132Z,99.99
2023-03-14T02:14:49.221Z,99.99
2023-03-14T02:15:19.850Z,99.99
2023-03-14T02:15:50.355Z,99.99
2023-03-14T02:16:21.324Z,99.99
2023-03-14T02:16:52.259Z,99.99
2023-03-14T02:17:23.204Z,99.99
2023-03-14T02:17:54.173Z,99.99
2023-03-14T02:18:25.070Z,99.99
2023-03-14T02:18:56.034Z,99.99
2023-03-14T02:19:26.940Z,99.99
2023-03-14T02:19:57.890Z,99.99
2023-03-14T02:20:28.843Z,99.99
2023-03-14T02:20:59.751Z,99.99
2023-03-14T02:21:30.658Z,99.99
2023-03-14T02:22:02.428Z,99.99
2023-03-14T02:22:32.342Z,99.99
2023-03-14T02:23:03.259Z,99.99
2023-03-14T02:23:34.176Z,99.99
2023-03-14T02:24:05.099Z,99.99
2023-03-14T02:24:36.020Z,99.99
2023-03-14T02:25:06.981Z,99.99
2023-03-14T02:25:37.874Z,99.99
2023-03-14T02:26:08.777Z,99.99
2023-03-14T02:26:39.713Z,99.99
2023-03-14T02:27:10.627Z,99.99
2023-03-14T02:27:41.563Z,99.99
2023-03-14T02:28:12.941Z,99.99
2023-03-14T02:28:43.367Z,99.99
2023-03-14T02:29:14.318Z,99.99
2023-03-14T02:29:45.247Z,99.99
2023-03-14T02:30:16.137Z,99.99
2023-03-14T02:30:47.057Z,99.99
2023-03-14T02:31:18.072Z,99.99
2023-03-14T02:31:48.548Z,99.99
2023-03-14T02:32:19.467Z,99.99
2023-03-14T02:32:50.540Z,99.99
2023-03-14T02:33:21.005Z,99.99
2023-03-14T02:33:51.935Z,99.99
2023-03-14T02:34:22.864Z,99.99
2023-03-14T02:34:53.770Z,99.99
2023-03-14T02:35:24.693Z,99.99
2023-03-14T02:35:55.690Z,99.99
2023-03-14T02:36:26.124Z,99.99
2023-03-14T02:36:57.046Z,99.99
2023-03-14T02:37:28.002Z,99.99
2023-03-14T02:37:58.895Z,99.99
2023-03-14T02:38:29.807Z,99.99
2023-03-14T02:39:00.744Z,99.99
2023-03-14T02:39:31.697Z,99.99
2023-03-14T02:40:02.630Z,99.99
2023-03-14T02:40:33.554Z,99.99
2023-03-14T02:41:04.493Z,99.99
2023-03-14T02:41:35.422Z,99.99
2023-03-14T02:42:06.332Z,99.99
2023-03-14T02:42:37.236Z,99.99
2023-03-14T02:43:08.170Z,99.99
2023-03-14T02:43:39.094Z,99.99
2023-03-14T02:44:10.060Z,99.99
2023-03-14T02:44:40.960Z,99.99
2023-03-14T02:45:11.882Z,99.93
2023-03-14T02:45:42.856Z,99.82
2023-03-14T02:46:13.864Z,99.72
2023-03-14T02:46:44.337Z,99.51
2023-03-14T02:47:15.268Z,99.41
2023-03-14T02:47:46.189Z,99.51
2023-03-14T02:48:17.102Z,99.51
2023-03-14T02:48:48.094Z,99.62
2023-03-14T02:49:18.994Z,99.62
2023-03-14T02:49:49.946Z,99.62
2023-03-14T02:50:20.868Z,99.51
2023-03-14T02:50:51.778Z,99.41
2023-03-14T02:51:22.718Z,99.31
2023-03-14T02:51:53.613Z,99.00
2023-03-14T02:52:24.538Z,98.79
2023-03-14T02:52:55.488Z,98.59
2023-03-14T02:53:26.377Z,98.38
2023-03-14T02:53:57.315Z,98.49
2023-03-14T02:54:28.221Z,98.59
2023-03-14T02:54:59.160Z,98.38
2023-03-14T02:55:30.097Z,98.49
2023-03-14T02:56:01.033Z,98.59
2023-03-14T02:56:31.960Z,98.59
2023-03-14T02:57:02.885Z,98.38
2023-03-14T02:57:33.781Z,98.28
2023-03-14T02:58:04.702Z,98.28
2023-03-14T02:58:35.626Z,98.28
2023-03-14T02:59:06.540Z,98.28
2023-03-14T02:59:37.447Z,98.18
2023-03-14T03:00:08.389Z,98.07
2023-03-14T03:00:39.304Z,97.97
2023-03-14T03:01:10.256Z,97.77
2023-03-14T03:01:41.267Z,97.66
2023-03-14T03:02:11.727Z,97.77
2023-03-14T03:02:42.638Z,97.87
2023-03-14T03:03:13.698Z,97.77
2023-03-14T03:03:44.161Z,97.77
2023-03-14T03:04:15.115Z,97.77
2023-03-14T03:04:46.030Z,97.77
2023-03-14T03:05:16.994Z,97.77
2023-03-14T03:05:47.900Z,97.87
2023-03-14T03:06:18.809Z,97.87
2023-03-14T03:06:49.703Z,97.66
2023-03-14T03:07:20.616Z,97.66
2023-03-14T03:07:51.539Z,97.77
2023-03-14T03:08:22.432Z,97.56
2023-03-14T03:08:53.326Z,97.36
2023-03-14T03:09:24.239Z,97.45
2023-03-14T03:09:55.176Z,97.56
2023-03-14T03:10:26.105Z,97.66
2023-03-14T03:10:57.037Z,97.66
2023-03-14T03:11:27.958Z,97.56
2023-03-14T03:11:58.851Z,97.45
2023-03-14T03:12:29.794Z,97.45
2023-03-14T03:13:00.722Z,97.56
2023-03-14T03:13:31.672Z,97.45
2023-03-14T03:14:03.448Z,97.66
2023-03-14T03:14:33.361Z,97.36
2023-03-14T03:15:04.290Z,97.25
2023-03-14T03:15:35.191Z,97.45
2023-03-14T03:16:06.159Z,97.56
2023-03-14T03:16:37.154Z,97.36
2023-03-14T03:17:08.010Z,97.05
2023-03-14T03:17:38.493Z,97.05
2023-03-14T03:18:09.450Z,97.05
2023-03-14T03:18:40.376Z,97.15
2023-03-14T03:19:11.328Z,97.36
2023-03-14T03:19:42.267Z,97.36
2023-03-14T03:20:13.192Z,97.05
2023-03-14T03:20:44.295Z,96.84
2023-03-14T03:21:14.755Z,97.15
2023-03-14T03:21:45.338Z,97.36
2023-03-14T03:22:16.270Z,97.56
2023-03-14T03:22:47.189Z,97.66
2023-03-14T03:23:18.081Z,97.66
2023-03-14T03:23:49.005Z,97.50
2023-03-14T03:24:19.922Z,97.56
2023-03-14T03:24:50.829Z,97.56
2023-03-14T03:25:21.760Z,97.40
2023-03-14T03:25:52.715Z,96.99
2023-03-14T03:26:23.601Z,96.89
2023-03-14T03:26:54.600Z,97.09
2023-03-14T03:27:25.519Z,97.30
2023-03-14T03:27:56.453Z,97.30
2023-03-14T03:28:27.392Z,97.40
2023-03-14T03:28:58.315Z,97.40
2023-03-14T03:29:29.261Z,97.40
2023-03-14T03:30:00.189Z,97.19
2023-03-14T03:30:31.093Z,97.09
2023-03-14T03:31:02.040Z,97.09
2023-03-14T03:31:33.050Z,97.19
2023-03-14T03:32:03.474Z,96.99
2023-03-14T03:32:34.432Z,96.99
2023-03-14T03:33:05.336Z,96.89
2023-03-14T03:33:36.310Z,96.78
2023-03-14T03:34:07.204Z,96.78
2023-03-14T03:34:38.122Z,96.68
2023-03-14T03:35:09.054Z,96.58
2023-03-14T03:35:39.991Z,96.37
2023-03-14T03:36:11.031Z,95.86
2023-03-14T03:36:41.514Z,95.86
2023-03-14T03:37:12.434Z,96.17
2023-03-14T03:37:43.346Z,96.37
2023-03-14T03:38:14.261Z,96.17
2023-03-14T03:38:45.253Z,96.06
2023-03-14T03:39:16.150Z,96.17
2023-03-14T03:39:47.043Z,95.96
2023-03-14T03:40:18.043Z,95.96
2023-03-14T03:40:48.951Z,96.06
2023-03-14T03:41:19.869Z,96.37
2023-03-14T03:41:50.793Z,96.58
2023-03-14T03:42:21.733Z,96.37
2023-03-14T03:42:52.655Z,96.37
2023-03-14T03:43:23.578Z,96.17
2023-03-14T03:43:54.536Z,96.06
2023-03-14T03:44:25.458Z,96.17
2023-03-14T03:44:56.393Z,96.37
2023-03-14T03:45:27.336Z,96.47
2023-03-14T03:45:58.285Z,96.37
2023-03-14T03:46:29.270Z,96.17
2023-03-14T03:47:00.173Z,96.17
2023-03-14T03:47:31.096Z,96.17
2023-03-14T03:48:02.064Z,95.75
2023-03-14T03:48:32.991Z,95.45
2023-03-14T03:49:03.905Z,95.75
2023-03-14T03:49:34.850Z,95.75
2023-03-14T03:50:05.781Z,95.75
2023-03-14T03:50:36.726Z,95.96
2023-03-14T03:51:07.635Z,95.96
2023-03-14T03:51:38.619Z,95.75
2023-03-14T03:52:09.516Z,95.70
2023-03-14T03:52:40.453Z,95.90
2023-03-14T03:53:13.684Z,95.90
2023-03-14T03:53:42.198Z,95.80
2023-03-14T03:54:13.107Z,96.00
2023-03-14T03:54:44.037Z,96.11
2023-03-14T03:55:14.980Z,96.00
2023-03-14T03:55:45.904Z,95.59
2023-03-14T03:56:16.829Z,95.70
2023-03-14T03:56:47.739Z,95.80
2023-03-14T03:57:18.754Z,95.70
2023-03-14T03:57:49.177Z,95.70
2023-03-14T03:58:20.122Z,95.90
2023-03-14T03:58:51.062Z,95.70
2023-03-14T03:59:21.961Z,95.70
2023-03-14T03:59:52.901Z,95.59
2023-03-14T04:00:23.807Z,95.59
2023-03-14T04:00:54.723Z,95.59
2023-03-14T04:01:25.667Z,95.39
2023-03-14T04:01:56.273Z,95.39
2023-03-14T04:02:26.912Z,95.59
2023-03-14T04:02:57.610Z,95.70
2023-03-14T04:03:28.308Z,95.49
2023-03-14T04:03:58.924Z,95.59
2023-03-14T04:04:29.398Z,95.59
2023-03-14T04:04:59.961Z,95.28
2023-03-14T04:05:30.555Z,95.18
2023-03-14T04:06:01.486Z,95.49
2023-03-14T04:06:32.473Z,95.49
2023-03-14T04:07:03.145Z,95.59
2023-03-14T04:07:34.057Z,95.80
2023-03-14T04:08:04.975Z,95.90
2023-03-14T04:08:35.874Z,95.49
2023-03-14T04:09:06.841Z,95.28
2023-03-14T04:09:37.792Z,95.28
2023-03-14T04:10:08.701Z,95.28
2023-03-14T04:10:39.659Z,95.28
2023-03-14T04:11:10.567Z,95.18
2023-03-14T04:11:41.510Z,95.08
2023-03-14T04:12:12.427Z,94.87
2023-03-14T04:12:44.364Z,95.08
2023-03-14T04:13:14.264Z,95.18
2023-03-14T04:13:45.190Z,95.18
2023-03-14T04:14:15.854Z,95.28
2023-03-14T04:14:46.785Z,95.28
2023-03-14T04:15:17.702Z,95.18
2023-03-14T04:15:48.659Z,95.18
2023-03-14T04:16:19.717Z,95.18
2023-03-14T04:16:50.140Z,95.08
2023-03-14T04:17:21.746Z,94.98
2023-03-14T04:17:51.596Z,94.98
2023-03-14T04:18:22.556Z,94.98
2023-03-14T04:18:53.473Z,95.18
2023-03-14T04:19:24.402Z,95.28
2023-03-14T04:19:55.339Z,95.39
2023-03-14T04:20:26.286Z,95.18
2023-03-14T04:20:57.205Z,95.08
2023-03-14T04:21:28.123Z,95.28
2023-03-14T04:21:59.055Z,95.39
2023-03-14T04:22:30.161Z,95.28
2023-03-14T04:23:00.547Z,94.87
2023-03-14T04:23:31.488Z,95.08
2023-03-14T04:24:02.410Z,94.87
2023-03-14T04:24:33.333Z,94.77
2023-03-14T04:25:04.287Z,94.98
2023-03-14T04:25:35.222Z,95.08
2023-03-14T04:26:06.133Z,95.08
2023-03-14T04:26:37.090Z,95.08
2023-03-14T04:27:07.992Z,94.77
2023-03-14T04:27:38.898Z,94.98
2023-03-14T04:28:09.804Z,95.18
2023-03-14T04:28:40.741Z,95.33
2023-03-14T04:29:13.307Z,95.28
2023-03-14T04:29:42.363Z,95.33
2023-03-14T04:30:13.274Z,95.53
2023-03-14T04:30:44.207Z,95.33
2023-03-14T04:31:15.167Z,95.23
2023-03-14T04:31:46.106Z,95.33
2023-03-14T04:32:17.081Z,95.53
2023-03-14T04:32:48.026Z,95.43
2023-03-14T04:33:18.943Z,95.33
2023-03-14T04:33:49.882Z,95.33
2023-03-14T04:34:20.796Z,95.43
2023-03-14T04:34:51.711Z,95.53
2023-03-14T04:35:22.666Z,95.64
2023-03-14T04:35:53.626Z,95.33
2023-03-14T04:36:24.551Z,95.23
2023-03-14T04:36:55.472Z,95.23
2023-03-14T04:37:26.417Z,95.12
2023-03-14T04:37:57.372Z,95.12
2023-03-14T04:38:28.267Z,95.23
2023-03-14T04:38:59.206Z,95.23
2023-03-14T04:39:30.128Z,95.33
2023-03-14T04:40:01.084Z,95.33
2023-03-14T04:40:31.975Z,95.12
2023-03-14T04:41:02.906Z,95.02
2023-03-14T04:41:33.802Z,95.02
2023-03-14T04:42:04.799Z,95.02
2023-03-14T04:42:35.709Z,95.02
2023-03-14T04:43:06.652Z,95.12
2023-03-14T04:43:37.544Z,95.02
2023-03-14T04:44:08.478Z,94.98
2023-03-14T04:44:39.384Z,94.60
2023-03-14T04:45:10.339Z,94.71
2023-03-14T04:45:41.257Z,94.71
2023-03-14T04:46:12.207Z,94.92
2023-03-14T04:46:43.169Z,94.81
2023-03-14T04:47:14.114Z,94.71
2023-03-14T04:47:45.012Z,94.92
2023-03-14T04:48:15.949Z,94.92
2023-03-14T04:48:46.906Z,95.02
2023-03-14T04:49:17.801Z,95.02
2023-03-14T04:49:48.740Z,94.92
2023-03-14T04:50:19.649Z,95.02
2023-03-14T04:50:50.562Z,94.81
2023-03-14T04:51:21.482Z,94.40
2023-03-14T04:51:52.437Z,94.09
2023-03-14T04:52:23.326Z,94.30
2023-03-14T04:52:54.308Z,94.40
2023-03-14T04:53:25.275Z,94.51
2023-03-14T04:53:56.199Z,94.60
2023-03-14T04:54:27.109Z,94.40
2023-03-14T04:54:58.071Z,94.40
2023-03-14T04:55:28.989Z,94.40
2023-03-14T04:55:59.923Z,94.40
2023-03-14T04:56:30.849Z,94.20
2023-03-14T04:57:01.807Z,94.30
2023-03-14T04:57:32.744Z,94.40
2023-03-14T04:58:03.662Z,94.51
2023-03-14T04:58:34.631Z,94.60
2023-03-14T04:59:05.569Z,94.81
2023-03-14T04:59:36.505Z,94.51
2023-03-14T05:00:07.435Z,94.51
2023-03-14T05:00:39.826Z,94.51
2023-03-14T05:01:09.321Z,94.51
2023-03-14T05:01:40.309Z,94.40
2023-03-14T05:02:11.341Z,94.30
2023-03-14T05:02:41.821Z,94.40
2023-03-14T05:03:12.365Z,94.40
2023-03-14T05:03:42.840Z,94.30
2023-03-14T05:04:13.777Z,94.30
2023-03-14T05:04:44.733Z,93.79
2023-03-14T05:05:15.637Z,93.79
2023-03-14T05:05:46.600Z,94.09
2023-03-14T05:06:17.522Z,93.99
2023-03-14T05:06:48.461Z,93.99
2023-03-14T05:07:19.399Z,94.30
2023-03-14T05:07:50.362Z,94.30
2023-03-14T05:08:21.251Z,94.20
2023-03-14T05:08:52.226Z,94.20
2023-03-14T05:09:23.166Z,93.88
2023-03-14T05:09:54.080Z,93.68
2023-03-14T05:10:24.981Z,93.79
2023-03-14T05:10:55.921Z,93.88
2023-03-14T05:11:26.822Z,93.99
2023-03-14T05:11:57.720Z,93.99
2023-03-14T05:12:28.654Z,93.88
2023-03-14T05:12:59.644Z,93.88
2023-03-14T05:13:30.521Z,93.58
2023-03-14T05:14:01.445Z,93.68
2023-03-14T05:14:32.366Z,93.88
2023-03-14T05:15:03.297Z,93.99
2023-03-14T05:15:34.136Z,94.09
2023-03-14T05:16:05.127Z,93.99
2023-03-14T05:16:36.185Z,93.99
2023-03-14T05:17:06.566Z,94.09
2023-03-14T05:17:37.427Z,94.20
2023-03-14T05:18:08.321Z,94.20
2023-03-14T05:18:39.186Z,94.09
2023-03-14T05:19:10.022Z,93.99
2023-03-14T05:19:40.920Z,93.79
2023-03-14T05:20:11.814Z,93.79
2023-03-14T05:20:42.750Z,93.68
2023-03-14T05:21:13.699Z,93.58
2023-03-14T05:21:44.616Z,93.48
2023-03-14T05:22:15.454Z,93.58
2023-03-14T05:22:46.319Z,93.68
2023-03-14T05:23:17.190Z,93.99
2023-03-14T05:23:48.051Z,93.88
2023-03-14T05:24:18.923Z,93.48
2023-03-14T05:24:49.780Z,93.48
2023-03-14T05:25:20.716Z,93.68
2023-03-14T05:25:51.608Z,93.88
2023-03-14T05:26:22.502Z,93.83
2023-03-14T05:26:53.469Z,93.62
2023-03-14T05:27:24.289Z,93.73
2023-03-14T05:27:55.153Z,93.52
2023-03-14T05:28:26.033Z,93.37
2023-03-14T05:28:56.892Z,93.37
2023-03-14T05:29:27.800Z,93.68
2023-03-14T05:29:58.685Z,93.83
2023-03-14T05:30:29.540Z,94.13
2023-03-14T05:31:00.567Z,94.24
2023-03-14T05:31:30.984Z,94.20
2023-03-14T05:32:01.820Z,94.09
2023-03-14T05:32:32.747Z,94.03
2023-03-14T05:33:03.696Z,93.99
2023-03-14T05:33:34.093Z,93.79
2023-03-14T05:34:04.965Z,93.79
2023-03-14T05:34:35.858Z,93.58
2023-03-14T05:35:06.713Z,93.37
2023-03-14T05:35:37.631Z,93.52
2023-03-14T05:36:08.572Z,93.68
2023-03-14T05:36:39.491Z,93.79
2023-03-14T05:37:10.418Z,93.93
2023-03-14T05:37:41.416Z,93.88
2023-03-14T05:38:12.508Z,93.58
2023-03-14T05:38:44.122Z,93.58
2023-03-14T05:39:13.894Z,93.62
2023-03-14T05:39:45.860Z,93.52
2023-03-14T05:40:15.747Z,93.58
2023-03-14T05:40:47.633Z,93.48
2023-03-14T05:41:17.511Z,93.58
2023-03-14T05:41:48.390Z,93.27
2023-03-14T05:42:19.253Z,92.96
2023-03-14T05:42:50.111Z,93.16
2023-03-14T05:43:21.008Z,93.16
2023-03-14T05:43:52.039Z,93.11
2023-03-14T05:44:22.504Z,93.31
2023-03-14T05:44:53.366Z,93.58
2023-03-14T05:45:24.233Z,93.27
2023-03-14T05:45:55.108Z,93.27
2023-03-14T05:46:26.037Z,93.48
2023-03-14T05:46:56.937Z,93.11
2023-03-14T05:47:27.780Z,93.01
2023-03-14T05:47:58.660Z,93.31
2023-03-14T05:48:29.546Z,93.21
2023-03-14T05:49:00.425Z,93.21
2023-03-14T05:49:31.277Z,93.21
2023-03-14T05:50:02.283Z,93.01
2023-03-14T05:50:33.498Z,93.01
2023-03-14T05:51:03.429Z,92.90
2023-03-14T05:51:34.289Z,93.11
2023-03-14T05:52:05.183Z,92.90
2023-03-14T05:52:36.055Z,92.80
2023-03-14T05:53:06.994Z,92.90
2023-03-14T05:53:37.895Z,93.01
2023-03-14T05:54:08.749Z,92.96
2023-03-14T05:54:39.595Z,92.90
2023-03-14T05:55:10.490Z,92.80
2023-03-14T05:55:41.347Z,93.01
2023-03-14T05:56:12.240Z,93.01
2023-03-14T05:56:43.169Z,93.01
2023-03-14T05:57:14.019Z,93.11
2023-03-14T05:57:44.936Z,93.21
2023-03-14T05:58:15.817Z,93.21
2023-03-14T05:58:46.699Z,92.80
2023-03-14T05:59:17.617Z,92.80
2023-03-14T05:59:48.478Z,93.21
2023-03-14T06:00:19.327Z,93.21
2023-03-14T06:00:50.224Z,93.11
2023-03-14T06:01:21.098Z,93.01
2023-03-14T06:01:52.025Z,93.11
2023-03-14T06:02:23.029Z,93.11
2023-03-14T06:02:53.985Z,93.01
2023-03-14T06:03:24.913Z,93.01
2023-03-14T06:03:55.749Z,93.01
2023-03-14T06:04:26.654Z,92.69
2023-03-14T06:04:57.500Z,92.69
2023-03-14T06:05:28.369Z,92.59
2023-03-14T06:05:59.246Z,92.69
2023-03-14T06:06:30.114Z,92.80
2023-03-14T06:07:00.981Z,93.01
2023-03-14T06:07:31.834Z,92.38
2023-03-14T06:08:02.703Z,92.49
2023-03-14T06:08:33.596Z,92.59
2023-03-14T06:09:04.485Z,92.49
2023-03-14T06:09:35.337Z,92.38
2023-03-14T06:10:06.183Z,92.18
2023-03-14T06:10:37.086Z,92.49
2023-03-14T06:11:07.954Z,92.49
2023-03-14T06:11:38.823Z,92.69
2023-03-14T06:12:09.775Z,92.49
2023-03-14T06:12:40.644Z,92.59
2023-03-14T06:13:11.501Z,92.69
2023-03-14T06:13:42.359Z,92.65
2023-03-14T06:14:13.221Z,92.59
2023-03-14T06:14:44.128Z,92.38
2023-03-14T06:15:14.980Z,92.59
2023-03-14T06:15:45.851Z,92.49
2023-03-14T06:16:16.786Z,92.49
2023-03-14T06:16:47.689Z,92.59
2023-03-14T06:17:18.602Z,92.59
2023-03-14T06:17:49.508Z,92.69
2023-03-14T06:18:20.363Z,92.49
2023-03-14T06:18:51.264Z,92.65
2023-03-14T06:19:22.160Z,92.34
2023-03-14T06:19:53.046Z,92.34
2023-03-14T06:20:23.921Z,92.55
2023-03-14T06:20:54.790Z,92.44
2023-03-14T06:21:25.670Z,92.44
2023-03-14T06:21:56.537Z,92.65
2023-03-14T06:22:27.419Z,92.65
2023-03-14T06:22:58.295Z,92.34
2023-03-14T06:23:29.295Z,92.44
2023-03-14T06:23:59.669Z,92.14
2023-03-14T06:24:30.552Z,92.03
2023-03-14T06:25:01.441Z,91.83
2023-03-14T06:25:32.325Z,91.66
2023-03-14T06:26:03.283Z,91.62
2023-03-14T06:26:34.115Z,91.31
2023-03-14T06:27:04.971Z,91.42
2023-03-14T06:27:35.812Z,91.83
2023-03-14T06:28:06.702Z,92.14
2023-03-14T06:28:37.592Z,92.24
2023-03-14T06:29:08.473Z,92.03
2023-03-14T06:29:39.337Z,92.03
2023-03-14T06:30:10.195Z,92.03
2023-03-14T06:30:41.136Z,92.14
2023-03-14T06:31:12.003Z,92.24
2023-03-14T06:31:42.884Z,92.03
2023-03-14T06:32:13.737Z,92.14
2023-03-14T06:32:44.660Z,92.14
2023-03-14T06:33:15.502Z,92.24
2023-03-14T06:33:46.375Z,92.24
2023-03-14T06:34:17.281Z,92.03
2023-03-14T06:34:48.162Z,92.14
2023-03-14T06:35:19.109Z,91.62
2023-03-14T06:35:50.069Z,91.72
2023-03-14T06:36:20.958Z,92.03
2023-03-14T06:36:51.807Z,91.62
2023-03-14T06:37:22.708Z,91.62
2023-03-14T06:37:53.579Z,91.62